Time;durP1;ratioP1;P1;durP2;ratioP2;P2;SDS_P1;SDS_P2;PMS_P1;PMS_P2;Temp;Humidity;BMP_temperature;BMP_pressure;BME280_temperature;BME280_humidity;BME280_pressure;Samples;Min_cycle;Max_cycle;Signal;HPM_P1;HPM_P2
2021/04/20 00:00:33;;;;;;;48.93;26.63;;;4.90;99.90;;;;;;5013851;28;20026;-85
2021/04/20 00:03:01;;;;;;;46.90;25.77;;;5.30;99.90;;;;;;5013775;28;20034;-85
2021/04/20 00:05:30;;;;;;;48.60;27.13;;;5.00;99.90;;;;;;5013962;28;20433;-85
2021/04/20 00:07:58;;;;;;;49.23;26.30;;;5.00;99.90;;;;;;5013521;28;20139;-85
2021/04/20 00:10:27;;;;;;;56.40;27.33;;;5.10;99.90;;;;;;5013625;28;20025;-85
2021/04/20 00:12:55;;;;;;;47.80;26.63;;;5.10;99.90;;;;;;5014074;28;20046;-84
2021/04/20 00:15:27;;;;;;;48.87;27.07;;;5.00;99.90;;;;;;5013852;28;20033;-84
2021/04/20 00:18:07;;;;;;;48.22;26.25;;;5.00;99.90;;;;;;5013879;28;20022;-85
2021/04/20 00:20:45;;;;;;;50.17;26.53;;;4.90;99.90;;;;;;5013544;28;20026;-85
2021/04/20 00:23:28;;;;;;;46.47;26.50;;;5.00;99.90;;;;;;5013692;28;20501;-85
2021/04/20 00:25:57;;;;;;;50.47;27.43;;;5.00;99.90;;;;;;5000845;28;20026;-84
2021/04/20 00:28:46;;;;;;;44.83;25.27;;;5.00;99.90;;;;;;5007480;28;20033;-85
2021/04/20 00:31:28;;;;;;;47.27;26.30;;;5.10;99.90;;;;;;5013093;28;20089;-84
2021/04/20 00:34:06;;;;;;;45.80;24.88;;;5.00;99.90;;;;;;5013396;28;20053;-85
2021/04/20 00:36:43;;;;;;;49.57;26.47;;;4.90;99.90;;;;;;5011784;28;20091;-85
2021/04/20 00:39:39;;;;;;;;;;;;;;;;;;;;;
2021/04/20 00:42:21;;;;;;;47.93;25.77;;;4.80;99.90;;;;;;5014254;28;20021;-85
2021/04/20 00:45:15;;;;;;;53.63;27.17;;;4.80;99.90;;;;;;4993969;28;20093;-85
2021/04/20 00:47:57;;;;;;;48.47;25.93;;;4.80;99.90;;;;;;4993483;28;20034;-84
2021/04/20 00:50:46;;;;;;;39.08;20.95;;;4.80;99.90;;;;;;5009889;28;20164;-84
2021/04/20 00:56:29;;;;;;;80.27;27.83;;;4.40;99.90;;;;;;5014616;28;20049;-84
2021/04/20 00:59:24;;;;;;;122.60;30.80;;;4.70;99.90;;;;;;5011269;28;20049;-84
2021/04/20 01:05:55;;;;;;;154.47;33.13;;;4.70;99.90;;;;;;4977638;28;20035;-84
2021/04/20 01:09:26;;;;;;;73.90;32.90;;;4.70;99.90;;;;;;5012834;28;20073;-85
2021/04/20 01:15:51;;;;;;;57.13;29.80;;;4.70;99.90;;;;;;4954052;29;20059;-85
2021/04/20 01:22:42;;;;;;;;;;;;;;;;;;;;;
2021/04/20 01:25:54;;;;;;;;;;;;;;;;;;;;;
2021/04/20 01:39:24;;;;;;;;;;;;;;;;;;;;;
2021/04/20 01:42:50;;;;;;;220.37;25.20;;;4.50;99.90;;;;;;4971887;28;20294;-85
2021/04/20 05:25:45;;;;;;;65.33;13.63;;;4.10;99.90;;;;;;4990412;28;20054;-86
2021/04/20 05:28:40;;;;;;;109.70;16.57;;;4.10;99.90;;;;;;4988914;28;20041;-86
2021/04/20 05:31:05;;;;;;;89.40;17.13;;;4.00;99.90;;;;;;4936601;28;20027;-85
2021/04/20 05:34:21;;;;;;;151.60;19.27;;;4.10;99.90;;;;;;4975110;28;20023;-85
2021/04/20 05:37:19;;;;;;;86.37;17.23;;;3.90;99.90;;;;;;5004418;28;20089;-86
2021/04/20 05:39:44;;;;;;;124.87;16.03;;;4.10;99.90;;;;;;4974413;28;20033;-86
2021/04/20 05:42:10;;;;;;;86.70;17.90;;;4.00;99.90;;;;;;4991296;28;20022;-86
2021/04/20 05:44:36;;;;;;;172.47;19.03;;;3.90;99.90;;;;;;4974626;28;20447;-86
2021/04/20 05:47:02;;;;;;;104.70;17.77;;;4.00;99.90;;;;;;4973564;28;20033;-86
2021/04/20 05:49:28;;;;;;;110.90;18.67;;;4.00;99.90;;;;;;4987667;28;20030;-86
2021/04/20 05:51:55;;;;;;;88.03;18.67;;;4.00;99.90;;;;;;4991920;28;20057;-86
2021/04/20 05:54:21;;;;;;;136.33;18.37;;;4.10;99.90;;;;;;4975539;28;20073;-86
2021/04/20 05:57:26;;;;;;;64.37;18.40;;;4.10;99.90;;;;;;4975670;28;20081;-86
2021/04/20 05:59:55;;;;;;;123.03;19.70;;;4.20;99.90;;;;;;4975943;28;20043;-85
2021/04/20 06:02:22;;;;;;;78.33;15.77;;;4.50;99.90;;;;;;4969161;28;20522;-86
2021/04/20 06:04:53;;;;;;;69.40;15.63;;;4.30;99.90;;;;;;4968517;28;20130;-86
2021/04/20 06:07:23;;;;;;;48.93;15.80;;;4.30;99.90;;;;;;4964519;28;20031;-86
2021/04/20 06:09:50;;;;;;;55.67;15.47;;;4.50;99.90;;;;;;4977500;28;20034;-86
2021/04/20 06:16:00;;;;;;;21.73;14.20;;;4.30;99.90;;;;;;4983677;28;20042;-86
2021/04/20 06:18:26;;;;;;;26.63;16.03;;;4.80;99.90;;;;;;4982721;28;20029;-87
2021/04/20 06:20:55;;;;;;;26.03;16.40;;;4.30;99.90;;;;;;4972144;28;20023;-86
2021/04/20 06:23:21;;;;;;;23.77;16.00;;;5.00;99.90;;;;;;4978585;28;20023;-87
2021/04/20 06:25:48;;;;;;;25.47;15.90;;;4.90;99.90;;;;;;4977138;28;20042;-87
2021/04/20 06:28:17;;;;;;;24.63;16.23;;;6.00;99.90;;;;;;4973880;28;20046;-86
2021/04/20 06:30:43;;;;;;;92.50;17.40;;;5.10;99.90;;;;;;4983436;28;20507;-86
2021/04/20 06:33:10;;;;;;;315.43;20.53;;;5.40;99.90;;;;;;4973325;28;20089;-86
2021/04/20 06:35:38;;;;;;;244.67;20.23;;;5.40;99.90;;;;;;4973458;28;20035;-86
2021/04/20 06:38:05;;;;;;;97.23;15.83;;;5.40;99.90;;;;;;5000221;28;20134;-86
2021/04/20 06:40:39;;;;;;;350.90;22.20;;;5.40;99.90;;;;;;4986013;28;20034;-87
2021/04/20 06:43:07;;;;;;;143.17;17.67;;;5.10;99.90;;;;;;4983572;28;20142;-88
2021/04/20 06:46:04;;;;;;;183.10;18.20;;;5.10;99.90;;;;;;4977744;28;20023;-89
2021/04/20 06:48:43;;;;;;;272.90;20.43;;;5.10;99.90;;;;;;4960036;28;20041;-88
2021/04/20 06:51:42;;;;;;;410.37;26.67;;;5.20;99.90;;;;;;4967058;28;20034;-87
2021/04/20 06:54:25;;;;;;;368.93;25.77;;;5.20;99.90;;;;;;4975742;28;20058;-87
2021/04/20 06:57:11;;;;;;;377.77;25.07;;;5.30;99.90;;;;;;4974696;28;20069;-86
2021/04/20 06:59:54;;;;;;;153.63;19.73;;;5.40;99.90;;;;;;4972426;28;20027;-86
2021/04/20 07:02:26;;;;;;;186.93;20.43;;;5.40;99.90;;;;;;4967555;28;20053;-87
2021/04/20 07:04:58;;;;;;;135.48;19.40;;;5.60;99.90;;;;;;4984323;28;20030;-87
2021/04/20 07:07:32;;;;;;;219.15;21.50;;;5.70;99.90;;;;;;4971845;28;20061;-86
2021/04/20 07:10:33;;;;;;;115.53;18.77;;;5.70;99.90;;;;;;4972137;28;20034;-86
2021/04/20 07:16:46;;;;;;;126.70;20.90;;;5.60;99.90;;;;;;4982951;28;20034;-86
2021/04/20 07:19:52;;;;;;;146.40;21.43;;;5.80;99.90;;;;;;4971071;28;20141;-86
2021/04/20 07:22:55;;;;;;;165.33;22.30;;;6.00;99.90;;;;;;4986910;28;20031;-86
2021/04/20 07:25:58;;;;;;;48.20;20.93;;;6.20;99.90;;;;;;4968028;28;20067;-87
2021/04/20 07:28:54;;;;;;;36.77;21.53;;;6.50;99.90;;;;;;4986075;28;20484;-87
2021/04/20 07:31:58;;;;;;;42.37;20.97;;;6.80;99.90;;;;;;4975320;28;20026;-87
2021/04/20 07:34:47;;;;;;;31.60;20.00;;;6.60;99.90;;;;;;4963853;28;20610;-86
2021/04/20 07:37:30;;;;;;;42.60;20.80;;;6.70;99.90;;;;;;4969733;28;20479;-87
2021/04/20 07:40:26;;;;;;;32.87;20.93;;;6.80;99.90;;;;;;4982844;28;20066;-88
2021/04/20 07:43:37;;;;;;;34.47;22.10;;;7.00;99.90;;;;;;4997089;28;20109;-87
2021/04/20 07:46:22;;;;;;;37.83;22.17;;;7.20;99.90;;;;;;4988271;28;20574;-87
2021/04/20 07:49:09;;;;;;;35.07;21.70;;;7.40;99.90;;;;;;4948788;28;20051;-86
2021/04/20 07:51:53;;;;;;;37.17;22.33;;;7.80;99.90;;;;;;4967216;28;20505;-87
2021/04/20 07:54:31;;;;;;;31.50;21.07;;;7.90;99.90;;;;;;4986375;28;20033;-86
2021/04/20 07:57:07;;;;;;;29.53;20.47;;;8.10;99.90;;;;;;4987285;28;20034;-88
2021/04/20 07:59:40;;;;;;;29.57;19.20;;;8.40;99.90;;;;;;4972187;28;20471;-89
2021/04/20 08:02:21;;;;;;;31.37;19.30;;;8.50;99.90;;;;;;4966342;28;20034;-89
2021/04/20 08:05:13;;;;;;;33.20;21.03;;;8.60;99.90;;;;;;4972689;28;20034;-89
2021/04/20 08:07:53;;;;;;;29.73;19.17;;;8.60;99.90;;;;;;4969657;28;20412;-90
2021/04/20 08:10:32;;;;;;;31.97;20.03;;;8.70;99.90;;;;;;4972769;28;20031;-89
2021/04/20 08:13:16;;;;;;;33.93;19.87;;;8.60;99.90;;;;;;4973456;28;20031;-89
2021/04/20 08:15:56;;;;;;;29.53;19.00;;;8.60;99.90;;;;;;4975045;28;20029;-90
2021/04/20 08:18:32;;;;;;;34.17;19.97;;;8.60;99.90;;;;;;4972338;28;20042;-90
2021/04/20 08:20:59;;;;;;;33.67;21.10;;;8.60;99.90;;;;;;4965729;28;20485;-90
2021/04/20 08:23:31;;;;;;;30.77;19.53;;;8.90;99.90;;;;;;4972774;28;20046;-90
2021/04/20 08:26:19;;;;;;;33.13;20.55;;;8.90;99.90;;;;;;4974740;28;20033;-90
2021/04/20 08:28:48;;;;;;;31.00;19.13;;;9.00;99.90;;;;;;4978499;28;20517;-90
2021/04/20 08:31:37;;;;;;;32.87;18.00;;;9.10;99.90;;;;;;4974906;28;20022;-90
2021/04/20 08:34:27;;;;;;;32.72;19.00;;;9.20;99.90;;;;;;4974817;28;20495;-90
2021/04/20 08:37:01;;;;;;;31.83;17.65;;;9.60;99.90;;;;;;4974668;28;20045;-89
2021/04/20 08:40:20;;;;;;;27.98;16.30;;;9.70;99.90;;;;;;4974722;28;20026;-90
2021/04/20 08:43:06;;;;;;;22.20;13.80;;;10.00;99.90;;;;;;4935575;29;20027;-90
2021/04/20 08:46:14;;;;;;;28.25;17.10;;;10.30;99.90;;;;;;4971937;28;20023;-90
2021/04/20 08:49:17;;;;;;;24.55;15.02;;;10.40;99.90;;;;;;4973982;28;20087;-91
2021/04/20 08:52:01;;;;;;;27.33;16.40;;;10.70;99.90;;;;;;4972421;28;20025;-90
2021/04/20 08:54:58;;;;;;;24.23;15.68;;;11.10;99.90;;;;;;4970907;28;20019;-87
2021/04/20 08:57:39;;;;;;;26.75;16.77;;;11.30;99.90;;;;;;4985923;28;20019;-88
2021/04/20 09:00:10;;;;;;;24.92;16.85;;;11.40;99.90;;;;;;4971333;28;20105;-88
2021/04/20 09:03:21;;;;;;;26.83;17.33;;;11.70;99.90;;;;;;4980317;28;20029;-88
2021/04/20 09:05:56;;;;;;;24.95;16.40;;;11.80;99.90;;;;;;4970174;28;20066;-89
2021/04/20 09:08:35;;;;;;;25.77;16.42;;;11.90;99.90;;;;;;5009460;28;20030;-89
2021/04/20 09:11:27;;;;;;;26.67;16.65;;;12.00;99.90;;;;;;4993588;28;20029;-89
2021/04/20 09:14:09;;;;;;;24.65;16.60;;;12.10;99.90;;;;;;4955133;28;20062;-89
2021/04/20 09:16:41;;;;;;;26.75;16.38;;;12.20;99.90;;;;;;4971861;28;20034;-89
2021/04/20 09:19:30;;;;;;;22.70;15.10;;;12.30;99.90;;;;;;4974632;28;20054;-89
2021/04/20 09:22:14;;;;;;;22.88;15.57;;;12.40;99.90;;;;;;4967272;28;20031;-88
2021/04/20 09:24:51;;;;;;;22.45;15.45;;;12.70;99.90;;;;;;4973421;28;20070;-89
2021/04/20 09:27:56;;;;;;;20.80;13.85;;;12.80;99.90;;;;;;4973115;28;20027;-89
2021/04/20 09:30:25;;;;;;;16.73;10.50;;;12.90;99.90;;;;;;4970045;28;20038;-89
2021/04/20 09:33:11;;;;;;;19.42;13.10;;;12.80;99.90;;;;;;4973116;28;20161;-89
2021/04/20 09:35:38;;;;;;;22.85;14.07;;;12.80;99.90;;;;;;4973705;28;20455;-88
2021/04/20 09:38:09;;;;;;;12.50;8.60;;;12.80;99.90;;;;;;4985758;28;20063;-88
2021/04/20 09:40:37;;;;;;;16.73;11.68;;;12.90;99.90;;;;;;5002737;28;20033;-88
2021/04/20 09:43:31;;;;;;;15.35;9.93;;;12.90;99.90;;;;;;4988730;28;20037;-88
2021/04/20 09:46:09;;;;;;;16.40;10.70;;;12.90;99.90;;;;;;4942870;28;20038;-87
2021/04/20 09:48:54;;;;;;;20.10;13.05;;;12.90;99.90;;;;;;4992334;28;20109;-87
2021/04/20 09:51:29;;;;;;;18.67;11.63;;;12.90;99.90;;;;;;4991000;28;20034;-88
2021/04/20 09:54:18;;;;;;;18.83;12.63;;;13.30;99.90;;;;;;5006581;28;20031;-88
2021/04/20 09:56:55;;;;;;;20.13;12.52;;;13.30;99.90;;;;;;5010676;28;20494;-88
2021/04/20 09:59:26;;;;;;;16.35;11.07;;;13.50;99.90;;;;;;4980183;28;20503;-88
2021/04/20 10:02:04;;;;;;;15.70;10.52;;;13.40;99.90;;;;;;4980061;28;20034;-87
2021/04/20 10:04:42;;;;;;;14.93;9.82;;;13.30;99.90;;;;;;5013868;28;20018;-87
2021/04/20 10:07:45;;;;;;;18.55;12.00;;;13.60;99.90;;;;;;4990162;28;20030;-87
2021/04/20 10:10:32;;;;;;;19.60;12.18;;;13.80;99.90;;;;;;4993172;28;20077;-88
2021/04/20 10:13:05;;;;;;;14.75;10.70;;;14.20;99.90;;;;;;4976090;28;20027;-87
2021/04/20 10:15:52;;;;;;;17.80;12.43;;;14.20;99.90;;;;;;4974052;28;20055;-88
2021/04/20 10:18:23;;;;;;;16.55;10.50;;;14.20;99.80;;;;;;4965575;28;20110;-88
2021/04/20 10:21:17;;;;;;;14.55;9.18;;;14.50;99.90;;;;;;4994760;28;20019;-89
2021/04/20 10:23:51;;;;;;;17.38;11.30;;;14.20;97.00;;;;;;4983152;28;20049;-87
2021/04/20 10:26:27;;;;;;;18.92;12.40;;;14.10;99.10;;;;;;4974414;28;20057;-88
2021/04/20 10:29:22;;;;;;;16.35;10.57;;;14.20;99.50;;;;;;5003323;28;20042;-87
2021/04/20 10:32:25;;;;;;;15.48;9.80;;;14.40;99.90;;;;;;4977338;28;20121;-87
2021/04/20 10:34:54;;;;;;;14.57;10.02;;;14.90;98.70;;;;;;4974134;28;20038;-88
2021/04/20 10:37:30;;;;;;;10.02;6.03;;;15.10;96.10;;;;;;4972976;28;20030;-88
2021/04/20 10:39:59;;;;;;;9.27;5.90;;;15.10;90.50;;;;;;4968062;28;21544;-88
2021/04/20 10:42:35;;;;;;;9.30;5.90;;;15.10;85.80;;;;;;4983066;28;20101;-88
2021/04/20 10:45:02;;;;;;;12.82;8.25;;;15.30;88.10;;;;;;4975014;28;20054;-88
2021/04/20 10:47:29;;;;;;;11.40;7.28;;;15.40;87.10;;;;;;4962683;28;20074;-88
2021/04/20 10:50:00;;;;;;;9.05;6.22;;;15.40;86.60;;;;;;4971236;28;20038;-88
2021/04/20 10:52:32;;;;;;;10.20;6.43;;;15.50;85.00;;;;;;4981462;28;20053;-88
2021/04/20 10:55:08;;;;;;;10.30;6.95;;;15.50;88.60;;;;;;4972631;28;20117;-88
2021/04/20 10:57:37;;;;;;;12.57;6.82;;;15.40;87.10;;;;;;4962831;28;20117;-88
2021/04/20 11:00:04;;;;;;;11.13;7.28;;;15.20;87.30;;;;;;4975035;28;20141;-88
2021/04/20 11:02:44;;;;;;;12.15;7.60;;;15.30;89.00;;;;;;4967125;28;20034;-88
2021/04/20 11:05:14;;;;;;;13.50;8.63;;;15.40;86.90;;;;;;4974434;28;20030;-89
2021/04/20 11:07:41;;;;;;;12.35;8.32;;;15.00;86.90;;;;;;4979027;28;20118;-88
2021/04/20 11:10:09;;;;;;;13.65;8.88;;;14.90;85.40;;;;;;4976624;28;20038;-88
2021/04/20 11:12:45;;;;;;;12.73;8.23;;;14.60;88.20;;;;;;4976325;28;20030;-87
2021/04/20 11:15:22;;;;;;;13.60;7.93;;;14.50;90.00;;;;;;4975809;28;20104;-87
2021/04/20 11:17:53;;;;;;;13.63;8.80;;;14.50;89.00;;;;;;4988795;28;20085;-87
2021/04/20 11:20:35;;;;;;;12.30;8.50;;;14.90;90.70;;;;;;4976716;28;20483;-87
2021/04/20 11:23:07;;;;;;;11.30;8.23;;;15.50;88.20;;;;;;4970235;28;20045;-87
2021/04/20 11:25:36;;;;;;;12.38;8.55;;;15.90;87.80;;;;;;4990710;28;20279;-88
2021/04/20 11:28:16;;;;;;;14.45;9.55;;;15.80;85.00;;;;;;4975588;28;20098;-87
2021/04/20 11:30:51;;;;;;;12.10;8.30;;;15.50;84.50;;;;;;4976121;28;20030;-87
2021/04/20 11:33:25;;;;;;;12.48;7.90;;;15.80;86.20;;;;;;4972761;28;20041;-87
2021/04/20 11:35:52;;;;;;;12.25;7.30;;;16.10;83.50;;;;;;4967392;28;20034;-87
2021/04/20 11:38:40;;;;;;;10.60;7.35;;;16.40;81.60;;;;;;4976612;28;20112;-87
2021/04/20 11:41:11;;;;;;;11.95;7.47;;;16.30;76.70;;;;;;4975877;28;20126;-88
2021/04/20 11:44:01;;;;;;;11.70;7.10;;;16.50;75.30;;;;;;4994016;28;20026;-88
2021/04/20 11:46:30;;;;;;;12.10;7.95;;;16.30;78.20;;;;;;4976018;28;20455;-87
2021/04/20 11:49:13;;;;;;;11.63;7.22;;;16.20;79.80;;;;;;4974433;28;20026;-87
2021/04/20 11:51:40;;;;;;;13.10;7.78;;;16.30;73.70;;;;;;4970455;28;20061;-87
2021/04/20 11:54:09;;;;;;;11.25;6.90;;;16.60;73.70;;;;;;4968404;28;20105;-87
2021/04/20 11:56:40;;;;;;;12.27;8.13;;;17.10;73.50;;;;;;4965215;28;20045;-87
2021/04/20 11:59:07;;;;;;;14.43;9.10;;;17.30;75.00;;;;;;4967514;28;20041;-86
2021/04/20 12:01:35;;;;;;;13.43;8.68;;;17.00;75.30;;;;;;4973487;28;20029;-86
2021/04/20 12:04:06;;;;;;;14.18;8.32;;;17.30;72.10;;;;;;4975924;28;20434;-86
2021/04/20 12:07:02;;;;;;;11.35;8.25;;;17.80;70.70;;;;;;4985259;28;20041;-86
2021/04/20 12:09:46;;;;;;;12.25;7.93;;;17.60;75.00;;;;;;4971218;28;20484;-86
2021/04/20 12:12:38;;;;;;;10.52;7.22;;;18.10;72.50;;;;;;4978233;28;20077;-86
2021/04/20 12:15:06;;;;;;;9.77;6.50;;;18.40;69.70;;;;;;4978947;28;20027;-83
2021/04/20 12:17:35;;;;;;;10.15;6.35;;;18.90;69.80;;;;;;5000175;28;20038;-82
2021/04/20 12:20:09;;;;;;;11.48;7.18;;;18.90;66.90;;;;;;4981754;28;20026;-81
2021/04/20 12:22:35;;;;;;;11.27;7.35;;;18.60;63.10;;;;;;4995369;28;20053;-83
2021/04/20 12:25:03;;;;;;;10.05;7.00;;;17.80;67.50;;;;;;4981637;28;20042;-82
2021/04/20 12:27:30;;;;;;;10.40;6.90;;;18.00;69.20;;;;;;5001778;28;20424;-83
2021/04/20 12:29:58;;;;;;;9.27;6.20;;;18.30;65.10;;;;;;4991369;28;20177;-83
2021/04/20 12:32:25;;;;;;;10.07;7.13;;;18.90;63.90;;;;;;4986177;28;20026;-83
2021/04/20 12:34:55;;;;;;;11.55;7.53;;;18.90;62.80;;;;;;4986295;28;20045;-84
2021/04/20 12:37:26;;;;;;;11.45;6.78;;;18.80;61.20;;;;;;4985823;28;20094;-83
2021/04/20 12:40:02;;;;;;;9.75;6.75;;;18.90;61.60;;;;;;4996846;28;20022;-83
2021/04/20 12:42:32;;;;;;;9.90;6.72;;;19.10;65.20;;;;;;4978377;28;20112;-83
2021/04/20 12:45:05;;;;;;;9.63;6.20;;;18.80;60.00;;;;;;4986255;28;20706;-82
2021/04/20 12:47:32;;;;;;;10.68;7.13;;;18.80;63.40;;;;;;4979138;28;20030;-82
2021/04/20 12:50:01;;;;;;;10.10;7.20;;;19.00;60.90;;;;;;4995980;28;20057;-82
2021/04/20 12:52:30;;;;;;;10.65;7.18;;;19.10;59.30;;;;;;4981734;28;20101;-84
2021/04/20 12:55:07;;;;;;;9.50;6.93;;;19.40;61.10;;;;;;4977603;28;20107;-86
2021/04/20 12:57:38;;;;;;;10.75;6.95;;;19.60;58.90;;;;;;5005327;28;20113;-86
2021/04/20 13:00:28;;;;;;;7.37;5.17;;;19.60;57.20;;;;;;4981571;28;20026;-85
2021/04/20 13:02:58;;;;;;;7.50;4.80;;;19.60;55.30;;;;;;4987497;28;20678;-87
2021/04/20 13:05:29;;;;;;;8.60;5.43;;;19.20;58.30;;;;;;4976413;28;20026;-87
2021/04/20 13:08:05;;;;;;;11.60;5.93;;;19.00;60.30;;;;;;4975673;28;20053;-87
2021/04/20 13:10:33;;;;;;;9.90;6.43;;;19.10;56.40;;;;;;4984113;28;20044;-87
2021/04/20 13:13:01;;;;;;;9.93;6.60;;;18.60;58.70;;;;;;4994869;28;20022;-87
2021/04/20 13:15:28;;;;;;;10.50;7.00;;;18.60;57.90;;;;;;4980942;28;20030;-87
2021/04/20 13:17:59;;;;;;;9.40;6.28;;;18.90;57.90;;;;;;4975090;28;20037;-87
2021/04/20 13:20:33;;;;;;;8.57;6.10;;;18.80;59.50;;;;;;4975111;28;20042;-86
2021/04/20 13:23:29;;;;;;;9.80;6.07;;;18.40;59.70;;;;;;4979024;28;20029;-86
2021/04/20 13:26:00;;;;;;;7.97;5.35;;;18.10;60.00;;;;;;4984223;28;20098;-86
2021/04/20 13:28:33;;;;;;;7.88;5.40;;;18.00;60.40;;;;;;4980229;28;20426;-86
2021/04/20 13:31:02;;;;;;;8.38;5.15;;;18.60;57.70;;;;;;4962569;28;20490;-87
2021/04/20 13:33:34;;;;;;;7.78;4.93;;;19.30;57.60;;;;;;4998160;28;20404;-87
2021/04/20 13:36:03;;;;;;;6.00;3.97;;;19.70;52.20;;;;;;4973453;28;20034;-87
2021/04/20 13:38:30;;;;;;;6.97;4.00;;;19.80;52.10;;;;;;4979068;28;20027;-88
2021/04/20 13:41:26;;;;;;;7.70;3.95;;;20.30;52.30;;;;;;4979743;28;20026;-87
2021/04/20 13:48:11;;;;;;;6.40;3.78;;;21.60;48.50;;;;;;4995095;28;20030;-87
2021/04/20 13:51:49;;;;;;;7.90;4.35;;;21.40;48.40;;;;;;4972244;28;20039;-88
2021/04/20 13:58:54;;;;;;;5.55;3.63;;;22.40;48.10;;;;;;4776682;30;20039;-87
2021/04/20 14:01:56;;;;;;;5.13;3.60;;;23.00;44.50;;;;;;4796455;29;20274;-88
2021/04/20 14:05:21;;;;;;;;;;;;;;;;;;;;;
2021/04/20 14:08:22;;;;;;;5.78;3.85;;;23.20;43.60;;;;;;4826950;29;20038;-88
2021/04/20 14:11:21;;;;;;;8.00;4.70;;;22.70;43.50;;;;;;4846710;29;20140;-87
2021/04/20 14:14:07;;;;;;;6.35;4.10;;;22.90;46.70;;;;;;4879913;29;20043;-88
2021/04/20 14:16:48;;;;;;;6.97;4.60;;;22.90;46.90;;;;;;4877806;29;20036;-88
2021/04/20 14:20:13;;;;;;;;;;;;;;;;;;;;;
2021/04/20 14:23:06;;;;;;;9.07;5.78;;;22.90;47.40;;;;;;4988390;28;20185;-88
2021/04/20 14:25:49;;;;;;;8.18;5.10;;;22.70;49.30;;;;;;4963675;28;20042;-88
2021/04/20 14:28:27;;;;;;;7.88;4.97;;;22.50;47.00;;;;;;4973134;28;20038;-87
2021/04/20 14:30:57;;;;;;;9.32;5.45;;;21.90;47.40;;;;;;4976161;28;20536;-87
2021/04/20 14:33:56;;;;;;;10.40;7.18;;;22.00;48.70;;;;;;4973272;28;20517;-87
2021/04/20 14:37:13;;;;;;;;;;;;;;;;;;;;;
2021/04/20 14:39:42;;;;;;;10.15;7.35;;;20.20;54.30;;;;;;4972411;28;20026;-87
2021/04/20 14:42:29;;;;;;;10.93;7.28;;;19.40;56.90;;;;;;4966114;28;20667;-86
2021/04/20 14:45:06;;;;;;;12.77;8.43;;;19.00;57.60;;;;;;5017071;28;20072;-87
2021/04/20 14:47:56;;;;;;;11.98;7.90;;;18.30;58.90;;;;;;4987115;28;20053;-87
2021/04/20 14:50:59;;;;;;;13.23;8.90;;;17.60;61.30;;;;;;4981239;28;20030;-86
2021/04/20 14:54:29;;;;;;;11.63;8.38;;;17.40;61.80;;;;;;4985599;28;20427;-87
2021/04/20 15:07:56;;;;;;;12.93;8.50;;;16.70;67.10;;;;;;4983739;28;20034;-87
2021/04/20 15:10:34;;;;;;;12.68;8.18;;;16.90;68.30;;;;;;4982105;28;20037;-86
2021/04/20 15:13:05;;;;;;;13.20;9.00;;;17.90;67.10;;;;;;4981482;28;20113;-85
2021/04/20 15:15:47;;;;;;;13.98;8.23;;;18.60;63.10;;;;;;5000423;28;20018;-86
2021/04/20 15:18:21;;;;;;;10.70;7.40;;;19.10;61.20;;;;;;4990467;28;20527;-85
2021/04/20 15:20:49;;;;;;;12.10;8.05;;;19.40;60.80;;;;;;4976183;28;20034;-85
2021/04/20 15:23:23;;;;;;;12.40;7.70;;;19.00;60.30;;;;;;5009721;28;20387;-86
2021/04/20 15:25:53;;;;;;;11.15;8.00;;;18.90;61.30;;;;;;4995642;28;20034;-86
2021/04/20 15:28:21;;;;;;;13.07;8.55;;;18.60;60.90;;;;;;4987586;28;20434;-84
2021/04/20 15:30:57;;;;;;;11.82;8.10;;;18.30;60.30;;;;;;4982487;28;20038;-84
2021/04/20 15:33:27;;;;;;;11.55;7.78;;;18.50;60.60;;;;;;5004547;28;20022;-85
2021/04/20 15:35:57;;;;;;;11.65;7.30;;;18.20;60.90;;;;;;4995949;28;20029;-84
2021/04/20 15:38:58;;;;;;;12.27;8.38;;;17.90;61.40;;;;;;4989429;28;20049;-84
2021/04/20 15:41:29;;;;;;;12.60;8.00;;;17.50;62.80;;;;;;4978913;28;20117;-84
2021/04/20 15:43:58;;;;;;;11.25;7.80;;;17.30;62.80;;;;;;5011824;28;20029;-84
2021/04/20 15:46:31;;;;;;;12.93;8.27;;;17.30;63.40;;;;;;4996685;28;20041;-84
2021/04/20 15:49:01;;;;;;;14.05;8.38;;;17.40;63.70;;;;;;4985419;28;20053;-85
2021/04/20 15:51:28;;;;;;;12.05;8.25;;;17.30;63.60;;;;;;4985544;28;20088;-84
2021/04/20 15:53:57;;;;;;;12.10;7.70;;;17.30;64.60;;;;;;4983978;28;20076;-86
2021/04/20 15:56:26;;;;;;;13.90;8.25;;;17.20;64.70;;;;;;4981232;28;20026;-85
2021/04/20 15:58:58;;;;;;;12.23;8.07;;;17.00;64.70;;;;;;4985296;28;20451;-84
2021/04/20 16:01:36;;;;;;;13.32;8.48;;;16.70;64.70;;;;;;5003497;28;20537;-84
2021/04/20 16:04:04;;;;;;;11.65;7.80;;;16.70;64.90;;;;;;4995427;28;20045;-84
2021/04/20 16:06:31;;;;;;;12.52;8.15;;;16.60;66.00;;;;;;4981759;28;20480;-84
2021/04/20 16:08:58;;;;;;;11.07;7.80;;;16.60;66.10;;;;;;4984244;28;20050;-85
2021/04/20 16:11:25;;;;;;;12.27;8.10;;;16.40;65.70;;;;;;4988465;28;20629;-85
2021/04/20 16:13:53;;;;;;;12.88;8.38;;;16.30;66.60;;;;;;4984626;28;20037;-84
2021/04/20 16:16:29;;;;;;;11.52;7.57;;;16.10;67.40;;;;;;5108758;27;20347;-85
2021/04/20 16:19:01;;;;;;;12.23;7.90;;;16.10;66.50;;;;;;5106999;28;20028;-85
2021/04/20 16:21:34;;;;;;;14.15;8.60;;;15.90;67.20;;;;;;5097330;28;20023;-84
2021/04/20 16:23:59;;;;;;;12.75;8.00;;;15.80;66.50;;;;;;5097077;28;20481;-85
2021/04/20 16:26:28;;;;;;;10.88;7.75;;;15.80;67.10;;;;;;5099486;28;20035;-84
2021/04/20 16:28:58;;;;;;;12.27;7.47;;;15.80;68.20;;;;;;5086580;28;20114;-85
2021/04/20 16:31:30;;;;;;;11.50;7.65;;;15.70;67.30;;;;;;5087130;28;20068;-84
2021/04/20 16:33:59;;;;;;;;;;;15.70;68.00;;;;;;5086267;28;20028;-85
2021/04/20 16:36:44;;;;;;;11.40;7.50;;;15.70;68.70;;;;;;5090930;28;19978;-84
2021/04/20 16:39:52;;;;;;;10.80;7.05;;;15.60;66.90;;;;;;5098734;28;20027;-85
2021/04/20 16:43:10;;;;;;;10.95;7.32;;;15.50;66.70;;;;;;5101939;28;20028;-84
2021/04/20 16:46:01;;;;;;;12.05;7.40;;;15.40;66.80;;;;;;5017149;28;20066;-84
2021/04/20 16:48:40;;;;;;;13.60;7.28;;;15.30;68.50;;;;;;5034668;28;20199;-84
2021/04/20 16:51:29;;;;;;;14.35;7.60;;;15.30;69.10;;;;;;5070044;28;20110;-84
2021/04/20 16:54:28;;;;;;;13.57;8.38;;;15.20;69.40;;;;;;5095473;28;20017;-85
2021/04/20 16:57:39;;;;;;;13.18;8.30;;;15.20;68.70;;;;;;5097493;28;20051;-84
2021/04/20 17:00:22;;;;;;;13.52;7.57;;;15.20;68.30;;;;;;5082461;28;20104;-84
2021/04/20 17:02:56;;;;;;;11.50;7.50;;;15.10;69.70;;;;;;5101931;28;20537;-84
2021/04/20 17:05:45;;;;;;;12.73;7.47;;;15.10;69.70;;;;;;5103178;28;20027;-83
2021/04/20 17:08:32;;;;;;;13.70;7.35;;;15.10;70.80;;;;;;5095756;28;20035;-83
2021/04/20 17:11:26;;;;;;;12.98;7.30;;;14.90;71.10;;;;;;5097377;28;20024;-84
2021/04/20 17:14:06;;;;;;;11.23;7.28;;;14.80;70.90;;;;;;5094530;28;20021;-81
2021/04/20 17:16:31;;;;;;;11.98;7.25;;;14.70;70.80;;;;;;5096666;28;20476;-84
2021/04/20 17:19:43;;;;;;;12.60;7.60;;;14.60;71.20;;;;;;5107098;28;20031;-84
2021/04/20 17:22:31;;;;;;;12.38;7.15;;;14.60;72.00;;;;;;5078976;28;20408;-84
2021/04/20 17:25:20;;;;;;;10.30;6.90;;;14.50;71.10;;;;;;5099955;28;20016;-84
2021/04/20 17:27:49;;;;;;;10.98;6.80;;;14.50;70.40;;;;;;5082819;28;20504;-88
2021/04/20 17:30:21;;;;;;;10.63;6.32;;;14.60;71.40;;;;;;5078620;28;20028;-83
2021/04/20 17:33:06;;;;;;;10.27;6.43;;;14.40;71.70;;;;;;5082258;28;20084;-83
2021/04/20 17:35:38;;;;;;;10.70;6.78;;;14.40;71.90;;;;;;5097449;28;20487;-84
2021/04/20 17:38:27;;;;;;;12.25;6.30;;;14.30;72.50;;;;;;5090892;28;20012;-84
2021/04/20 17:41:14;;;;;;;12.73;6.80;;;14.20;72.20;;;;;;5079506;28;20069;-84
2021/04/20 17:43:51;;;;;;;11.27;6.63;;;14.10;73.20;;;;;;5096764;28;20458;-84
2021/04/20 17:46:45;;;;;;;10.70;6.68;;;14.10;72.70;;;;;;5085493;28;20050;-84
2021/04/20 17:49:37;;;;;;;10.80;6.32;;;13.90;73.80;;;;;;5075486;28;20044;-84
2021/04/20 17:52:40;;;;;;;9.68;6.15;;;13.90;73.60;;;;;;5083786;28;20029;-84
2021/04/20 17:55:09;;;;;;;;;;;13.90;74.70;;;;;;5076870;28;20028;-84
2021/04/20 17:57:57;;;;;;;8.20;5.32;;;13.80;75.40;;;;;;5086268;28;20404;-84
2021/04/20 18:00:49;;;;;;;10.90;6.30;;;13.70;75.60;;;;;;5081861;28;20021;-85
2021/04/20 18:03:28;;;;;;;10.02;6.18;;;13.70;77.20;;;;;;5087007;28;20523;-85
2021/04/20 18:06:29;;;;;;;10.68;6.15;;;13.60;77.90;;;;;;5094699;28;20023;-84
2021/04/20 18:09:02;;;;;;;12.05;7.45;;;13.60;78.20;;;;;;5091280;28;20039;-85
2021/04/20 18:11:46;;;;;;;15.93;8.82;;;13.50;79.20;;;;;;5094723;28;20029;-84
2021/04/20 18:14:48;;;;;;;21.17;10.73;;;13.40;79.60;;;;;;5085216;28;20416;-84
2021/04/20 18:17:36;;;;;;;20.48;11.30;;;13.30;79.70;;;;;;5087503;28;20021;-84
2021/04/20 18:20:23;;;;;;;16.75;9.57;;;13.20;80.20;;;;;;5082351;28;20047;-85
2021/04/20 18:23:23;;;;;;;12.55;8.20;;;13.20;80.70;;;;;;5090294;28;20028;-84
2021/04/20 18:26:27;;;;;;;12.18;7.45;;;13.10;81.50;;;;;;5106062;28;20377;-85